createdAt,value
2023-03-13T00:02:28.220Z,35.10
2023-03-13T00:05:36.430Z,35.00
2023-03-13T00:08:48.413Z,34.90
2023-03-13T00:12:00.398Z,34.80
2023-03-13T00:15:13.186Z,34.40
2023-03-13T00:18:23.273Z,34.40
2023-03-13T00:21:31.583Z,34.60
2023-03-13T00:24:42.223Z,35.00
2023-03-13T00:27:51.524Z,35.10
2023-03-13T00:31:05.700Z,34.90
2023-03-13T00:34:15.740Z,35.00
2023-03-13T00:37:26.669Z,34.70
2023-03-13T00:40:35.887Z,34.50
2023-03-13T00:43:49.692Z,34.50
2023-03-13T00:46:57.153Z,34.50
2023-03-13T00:50:08.163Z,34.70
2023-03-13T00:53:17.808Z,34.80
2023-03-13T00:56:29.256Z,35.00
2023-03-13T00:59:40.102Z,35.30
2023-03-13T01:02:50.251Z,35.50
2023-03-13T01:06:05.790Z,35.60
2023-03-13T01:09:14.569Z,35.60
2023-03-13T01:12:28.122Z,35.70
2023-03-13T01:15:40.655Z,35.60
2023-03-13T01:18:50.624Z,35.70
2023-03-13T01:22:03.072Z,35.60
2023-03-13T01:25:13.988Z,35.60
2023-03-13T01:28:25.528Z,35.70
2023-03-13T01:31:35.896Z,35.60
2023-03-13T01:34:45.607Z,35.60
2023-03-13T01:37:55.554Z,35.60
2023-03-13T01:41:04.707Z,35.70
2023-03-13T01:44:23.620Z,35.70
2023-03-13T01:47:34.714Z,35.60
2023-03-13T01:50:45.532Z,35.60
2023-03-13T01:53:56.777Z,35.70
2023-03-13T01:57:09.066Z,35.70
2023-03-13T02:00:26.661Z,35.60
2023-03-13T02:03:37.445Z,35.60
2023-03-13T02:06:47.848Z,35.60
2023-03-13T02:10:01.213Z,35.70
2023-03-13T02:13:14.701Z,35.70
2023-03-13T02:16:25.388Z,35.70
2023-03-13T02:19:39.978Z,35.60
2023-03-13T02:22:52.532Z,35.60
2023-03-13T02:26:02.419Z,35.70
2023-03-13T02:29:14.853Z,35.60
2023-03-13T02:32:27.343Z,35.60
2023-03-13T02:35:38.215Z,35.60
2023-03-13T02:38:50.062Z,35.70
2023-03-13T02:42:01.457Z,35.60
2023-03-13T02:48:36.990Z,35.60
2023-03-13T02:51:47.739Z,35.60
2023-03-13T02:55:00.285Z,35.60
2023-03-13T02:58:08.463Z,35.60
2023-03-13T03:01:22.906Z,35.60
2023-03-13T03:04:33.912Z,35.60
2023-03-13T03:07:45.354Z,35.50
2023-03-13T03:10:56.037Z,35.60
2023-03-13T03:14:06.220Z,35.60
2023-03-13T03:17:15.951Z,35.60
2023-03-13T03:20:25.835Z,35.60
2023-03-13T03:23:33.939Z,35.70
2023-03-13T03:26:42.967Z,35.70
2023-03-13T03:29:53.845Z,35.70
2023-03-13T03:33:04.431Z,35.60
2023-03-13T03:36:16.571Z,35.60
2023-03-13T03:39:29.420Z,35.60
2023-03-13T03:42:42.168Z,35.60
2023-03-13T03:45:54.817Z,35.60
2023-03-13T03:49:02.878Z,35.60
2023-03-13T03:52:15.938Z,35.60
2023-03-13T03:55:25.000Z,35.60
2023-03-13T03:58:34.778Z,35.60
2023-03-13T04:01:45.402Z,35.50
2023-03-13T04:04:57.404Z,35.60
2023-03-13T04:08:10.310Z,35.80
2023-03-13T04:11:21.934Z,35.80
2023-03-13T04:14:34.358Z,35.90
2023-03-13T04:17:44.066Z,35.90
2023-03-13T04:20:54.052Z,35.80
2023-03-13T04:24:05.512Z,35.90
2023-03-13T04:27:16.306Z,35.80
2023-03-13T04:30:30.404Z,35.80
2023-03-13T04:33:40.072Z,35.70
2023-03-13T04:36:48.871Z,35.70
2023-03-13T04:39:59.273Z,35.60
2023-03-13T04:43:09.983Z,35.60
2023-03-13T04:46:21.502Z,35.50
2023-03-13T04:49:31.622Z,35.60
2023-03-13T04:52:42.179Z,35.50
2023-03-13T04:55:52.094Z,35.50
2023-03-13T04:59:03.642Z,36.10
2023-03-13T05:02:14.344Z,35.60
2023-03-13T05:05:26.600Z,35.50
2023-03-13T05:08:40.636Z,35.50
2023-03-13T05:11:50.896Z,35.60
2023-03-13T05:15:00.734Z,35.60
2023-03-13T05:18:11.652Z,35.60
2023-03-13T05:21:24.074Z,35.70
2023-03-13T05:24:33.743Z,35.60
2023-03-13T05:27:44.287Z,35.60
2023-03-13T05:30:55.169Z,35.70
2023-03-13T05:34:05.267Z,35.80
2023-03-13T05:37:12.653Z,35.70
2023-03-13T05:40:27.867Z,35.60
2023-03-13T05:43:36.703Z,35.80
2023-03-13T05:46:50.043Z,35.80
2023-03-13T05:50:00.735Z,35.80
2023-03-13T05:53:11.245Z,35.50
2023-03-13T05:56:18.702Z,35.40
2023-03-13T05:59:30.565Z,36.20
2023-03-13T06:02:42.250Z,36.50
2023-03-13T06:05:53.572Z,36.60
2023-03-13T06:09:08.424Z,36.70
2023-03-13T06:12:21.080Z,36.90
2023-03-13T06:15:33.542Z,36.80
2023-03-13T06:18:45.080Z,36.90
2023-03-13T06:21:55.766Z,36.80
2023-03-13T06:25:07.505Z,36.60
2023-03-13T06:28:18.431Z,36.30
2023-03-13T06:31:30.869Z,36.20
2023-03-13T06:34:41.584Z,36.20
2023-03-13T06:37:54.417Z,36.60
2023-03-13T06:41:06.006Z,36.80
2023-03-13T06:44:17.533Z,36.70
2023-03-13T06:47:27.371Z,36.50
2023-03-13T06:50:38.823Z,36.70
2023-03-13T06:57:06.795Z,36.50
2023-03-13T07:00:18.125Z,36.50
2023-03-13T07:03:28.902Z,36.10
2023-03-13T07:06:43.046Z,36.00
2023-03-13T07:09:55.296Z,36.00
2023-03-13T07:13:06.266Z,36.10
2023-03-13T07:16:17.807Z,36.40
2023-03-13T07:19:31.492Z,36.60
2023-03-13T07:22:40.695Z,36.50
2023-03-13T07:25:49.962Z,36.70
2023-03-13T07:28:58.133Z,36.40
2023-03-13T07:32:10.647Z,36.50
2023-03-13T07:35:22.640Z,36.30
2023-03-13T07:38:33.155Z,35.90
2023-03-13T07:41:45.147Z,35.90
2023-03-13T07:44:56.665Z,36.00
2023-03-13T07:48:05.715Z,36.10
2023-03-13T07:51:17.547Z,36.20
2023-03-13T07:54:26.656Z,36.40
2023-03-13T07:57:40.952Z,36.30
2023-03-13T08:00:54.055Z,36.40
2023-03-13T08:04:04.644Z,36.40
2023-03-13T08:07:15.730Z,36.30
2023-03-13T08:10:26.114Z,35.90
2023-03-13T08:13:36.299Z,35.80
2023-03-13T08:16:43.653Z,35.90
2023-03-13T08:19:52.765Z,35.80
2023-03-13T08:23:05.939Z,36.00
2023-03-13T08:26:18.447Z,36.10
2023-03-13T08:29:30.659Z,36.20
2023-03-13T08:32:40.324Z,36.40
2023-03-13T08:35:52.391Z,36.30
2023-03-13T08:39:05.460Z,36.10
2023-03-13T08:42:16.572Z,35.80
2023-03-13T08:45:26.408Z,35.70
2023-03-13T08:48:38.290Z,35.70
2023-03-13T08:51:49.373Z,36.50
2023-03-13T08:54:59.003Z,36.00
2023-03-13T08:58:10.984Z,36.10
2023-03-13T09:01:21.704Z,36.10
2023-03-13T09:04:30.598Z,36.20
2023-03-13T09:07:41.615Z,36.30
2023-03-13T09:10:54.363Z,36.10
2023-03-13T09:14:03.580Z,35.80
2023-03-13T09:17:12.493Z,35.70
2023-03-13T09:20:24.057Z,35.70
2023-03-13T09:23:34.071Z,35.80
2023-03-13T09:26:58.583Z,35.90
2023-03-13T09:29:53.394Z,36.10
2023-03-13T09:33:06.835Z,36.20
2023-03-13T09:36:14.903Z,36.20
2023-03-13T09:39:26.350Z,36.00
2023-03-13T09:42:44.712Z,35.90
2023-03-13T09:45:55.726Z,35.90
2023-03-13T09:49:08.605Z,35.70
2023-03-13T09:52:21.190Z,35.70
2023-03-13T09:55:31.435Z,35.80
2023-03-13T09:58:41.660Z,35.90
2023-03-13T10:01:54.444Z,36.00
2023-03-13T10:05:12.120Z,36.10
2023-03-13T10:08:25.289Z,36.10
2023-03-13T10:11:35.923Z,36.10
2023-03-13T10:14:51.917Z,36.00
2023-03-13T10:18:02.142Z,35.70
2023-03-13T10:21:20.637Z,35.70
2023-03-13T10:24:34.296Z,35.70
2023-03-13T10:27:55.792Z,35.80
2023-03-13T10:31:09.079Z,35.90
2023-03-13T10:34:14.956Z,36.00
2023-03-13T10:37:28.284Z,36.10
2023-03-13T10:40:40.096Z,36.10
2023-03-13T10:43:58.337Z,36.10
2023-03-13T10:47:10.170Z,35.90
2023-03-13T10:50:25.810Z,35.60
2023-03-13T10:53:40.731Z,35.70
2023-03-13T10:56:52.767Z,35.70
2023-03-13T11:00:04.340Z,35.70
2023-03-13T11:03:21.406Z,35.90
2023-03-13T11:06:35.527Z,36.00
2023-03-13T11:09:46.212Z,36.10
2023-03-13T11:12:58.640Z,36.00
2023-03-13T11:16:16.300Z,36.00
2023-03-13T11:19:59.429Z,36.00
2023-03-13T11:23:21.649Z,36.00
2023-03-13T11:26:35.596Z,36.00
2023-03-13T11:29:49.985Z,36.00
2023-03-13T11:33:01.510Z,36.00
2023-03-13T11:36:17.444Z,36.10
2023-03-13T11:43:32.880Z,36.00
2023-03-13T11:46:57.441Z,36.00
2023-03-13T11:50:20.367Z,35.90
2023-03-13T11:53:33.218Z,35.90
2023-03-13T11:56:45.372Z,35.70
2023-03-13T11:59:58.235Z,35.60
2023-03-13T12:03:14.437Z,35.40
2023-03-13T12:06:31.721Z,35.60
2023-03-13T12:09:42.153Z,35.50
2023-03-13T12:12:52.806Z,35.80
2023-03-13T12:16:07.406Z,36.00
2023-03-13T12:19:22.639Z,36.00
2023-03-13T12:22:34.429Z,36.00
2023-03-13T12:25:45.485Z,36.00
2023-03-13T12:28:56.953Z,36.00
2023-03-13T12:32:09.681Z,35.70
2023-03-13T12:35:28.438Z,35.60
2023-03-13T12:38:40.599Z,35.80
2023-03-13T12:41:51.008Z,35.50
2023-03-13T12:45:03.517Z,35.60
2023-03-13T12:48:35.299Z,35.70
2023-03-13T12:51:51.181Z,35.80
2023-03-13T12:55:06.652Z,37.20
2023-03-13T12:58:24.264Z,36.60
2023-03-13T13:01:36.112Z,36.50
2023-03-13T13:04:51.726Z,36.50
2023-03-13T13:07:59.974Z,35.90
2023-03-13T13:11:41.541Z,35.70
2023-03-13T13:15:21.737Z,35.60
2023-03-13T13:18:31.029Z,35.40
2023-03-13T13:21:39.691Z,35.70
2023-03-13T13:24:54.847Z,36.40
2023-03-13T13:28:19.771Z,36.60
2023-03-13T13:32:01.810Z,36.50
2023-03-13T13:35:29.469Z,36.50
2023-03-13T13:38:42.789Z,35.80
2023-03-13T13:41:50.126Z,35.70
2023-03-13T13:45:05.534Z,35.70
2023-03-13T13:48:34.020Z,35.70
2023-03-13T13:51:44.810Z,35.90
2023-03-13T13:55:01.120Z,35.80
2023-03-13T13:58:14.657Z,35.90
2023-03-13T14:01:28.044Z,35.90
2023-03-13T14:04:41.558Z,36.70
2023-03-13T14:07:56.344Z,36.50
2023-03-13T14:11:16.232Z,36.40
2023-03-13T14:14:28.775Z,36.00
2023-03-13T14:17:44.191Z,35.70
2023-03-13T14:21:04.764Z,35.20
2023-03-13T14:24:20.424Z,35.20
2023-03-13T14:27:32.924Z,35.30
2023-03-13T14:30:46.388Z,35.40
2023-03-13T14:33:59.361Z,35.70
2023-03-13T14:37:18.043Z,35.70
2023-03-13T14:40:30.435Z,35.50
2023-03-13T14:43:44.825Z,35.40
2023-03-13T14:46:56.906Z,35.60
2023-03-13T14:50:08.590Z,35.70
2023-03-13T14:53:19.018Z,35.60
2023-03-13T14:56:39.440Z,36.50
2023-03-13T14:59:49.847Z,35.80
2023-03-13T15:03:17.208Z,35.80
2023-03-13T15:06:28.027Z,35.50
2023-03-13T15:09:41.489Z,35.00
2023-03-13T15:12:51.336Z,34.80
2023-03-13T15:16:00.092Z,35.00
2023-03-13T15:19:08.878Z,35.00
2023-03-13T15:22:19.311Z,35.70
2023-03-13T15:25:30.643Z,35.80
2023-03-13T15:28:41.976Z,35.80
2023-03-13T15:31:55.416Z,35.80
2023-03-13T15:35:07.547Z,36.90
2023-03-13T15:38:19.511Z,37.80
2023-03-13T15:41:32.393Z,37.40
2023-03-13T15:44:44.214Z,36.80
2023-03-13T15:47:53.471Z,36.20
2023-03-13T15:51:07.826Z,36.30
2023-03-13T15:54:16.880Z,36.40
2023-03-13T15:57:26.251Z,36.40
2023-03-13T16:00:39.165Z,36.60
2023-03-13T16:03:47.381Z,36.90
2023-03-13T16:06:54.691Z,36.90
2023-03-13T16:10:05.421Z,36.90
2023-03-13T16:13:15.403Z,37.00
2023-03-13T16:16:29.145Z,37.40
2023-03-13T16:19:39.181Z,37.40
2023-03-13T16:22:53.541Z,37.80
2023-03-13T16:26:04.753Z,36.20
2023-03-13T16:29:15.358Z,35.80
2023-03-13T16:32:27.889Z,35.80
2023-03-13T16:35:38.732Z,36.00
2023-03-13T16:38:51.058Z,36.80
2023-03-13T16:42:02.158Z,36.80
2023-03-13T16:45:17.460Z,36.70
2023-03-13T16:48:28.664Z,37.00
2023-03-13T16:51:39.665Z,37.50
2023-03-13T16:54:48.133Z,36.20
2023-03-13T16:57:58.844Z,36.10
2023-03-13T17:01:12.912Z,36.30
2023-03-13T17:04:22.731Z,36.60
2023-03-13T17:07:32.099Z,37.00
2023-03-13T17:10:40.314Z,37.60
2023-03-13T17:13:52.369Z,37.40
2023-03-13T17:17:04.720Z,37.20
2023-03-13T17:20:18.936Z,36.90
2023-03-13T17:23:30.295Z,36.30
2023-03-13T17:26:42.208Z,35.90
2023-03-13T17:29:53.086Z,36.00
2023-03-13T17:33:02.800Z,36.30
2023-03-13T17:36:20.878Z,36.40
2023-03-13T17:39:30.991Z,36.90
2023-03-13T17:42:42.844Z,36.30
2023-03-13T17:45:52.275Z,36.40
2023-03-13T17:49:01.491Z,36.80
2023-03-13T17:52:16.425Z,37.30
2023-03-13T17:55:24.556Z,37.20
2023-03-13T17:58:37.300Z,36.90
2023-03-13T18:01:50.120Z,36.80
2023-03-13T18:05:02.578Z,36.00
2023-03-13T18:08:13.738Z,35.70
2023-03-13T18:11:25.005Z,35.80
2023-03-13T18:14:40.267Z,35.80
2023-03-13T18:17:52.782Z,36.00
2023-03-13T18:21:03.657Z,36.00
2023-03-13T18:24:12.079Z,36.10
2023-03-13T18:27:24.764Z,36.20
2023-03-13T18:30:35.633Z,36.70
2023-03-13T18:33:48.348Z,36.50
2023-03-13T18:37:01.481Z,36.60
2023-03-13T18:40:17.970Z,36.50
2023-03-13T18:43:29.965Z,36.60
2023-03-13T18:46:41.156Z,36.70
2023-03-13T18:49:53.574Z,36.70
2023-03-13T18:53:04.481Z,36.70
2023-03-13T18:56:19.154Z,36.80
2023-03-13T18:59:28.998Z,36.70
2023-03-13T19:02:38.957Z,36.60
2023-03-13T19:05:47.865Z,36.60
2023-03-13T19:08:59.440Z,36.50
2023-03-13T19:12:15.043Z,36.60
2023-03-13T19:15:25.088Z,36.60
2023-03-13T19:18:39.041Z,36.80
2023-03-13T19:21:50.739Z,36.50
2023-03-13T19:25:03.955Z,36.50
2023-03-13T19:28:14.984Z,36.60
2023-03-13T19:31:25.798Z,36.70
2023-03-13T19:34:38.398Z,36.70
2023-03-13T19:37:48.529Z,36.60
2023-03-13T19:40:59.272Z,36.60
2023-03-13T19:44:14.049Z,36.50
2023-03-13T19:47:23.360Z,36.00
2023-03-13T19:50:35.544Z,35.50
2023-03-13T19:53:48.002Z,35.50
2023-03-13T19:56:56.798Z,35.50
2023-03-13T20:00:09.705Z,35.80
2023-03-13T20:03:17.785Z,35.80
2023-03-13T20:06:28.945Z,36.00
2023-03-13T20:09:37.844Z,36.00
2023-03-13T20:12:51.345Z,36.00
2023-03-13T20:16:02.349Z,36.20
2023-03-13T20:19:13.174Z,36.20
2023-03-13T20:22:24.523Z,36.00
2023-03-13T20:25:35.303Z,36.00
2023-03-13T20:28:46.910Z,36.20
2023-03-13T20:31:59.943Z,36.40
2023-03-13T20:35:14.643Z,36.40
2023-03-13T20:38:24.739Z,36.30
2023-03-13T20:41:35.984Z,36.70
2023-03-13T20:44:47.496Z,36.40
2023-03-13T20:47:57.905Z,35.30
2023-03-13T20:51:08.165Z,35.40
2023-03-13T20:54:18.958Z,35.60
2023-03-13T20:57:29.003Z,35.80
2023-03-13T21:00:41.216Z,36.10
2023-03-13T21:03:49.673Z,36.60
2023-03-13T21:07:03.739Z,36.80
2023-03-13T21:10:18.854Z,36.40
2023-03-13T21:13:30.609Z,36.60
2023-03-13T21:16:42.167Z,36.70
2023-03-13T21:19:53.166Z,35.90
2023-03-13T21:23:03.487Z,35.50
2023-03-13T21:26:15.967Z,35.50
2023-03-13T21:29:26.746Z,35.90
2023-03-13T21:32:40.145Z,36.50
2023-03-13T21:35:52.408Z,36.60
2023-03-13T21:39:08.036Z,37.00
2023-03-13T21:42:20.946Z,38.20
2023-03-13T21:45:36.823Z,39.30
2023-03-13T21:51:58.150Z,38.90
2023-03-13T21:55:10.847Z,39.20
2023-03-13T21:58:19.938Z,40.60
2023-03-13T22:01:33.259Z,40.40
2023-03-13T22:04:43.791Z,39.90
2023-03-13T22:07:54.030Z,39.50
2023-03-13T22:11:05.314Z,39.70
2023-03-13T22:14:16.299Z,39.70
2023-03-13T22:17:25.709Z,39.30
2023-03-13T22:20:36.441Z,39.10
2023-03-13T22:23:44.532Z,38.10
2023-03-13T22:26:55.284Z,37.90
2023-03-13T22:30:05.017Z,38.20
2023-03-13T22:33:16.741Z,38.60
2023-03-13T22:36:25.712Z,38.60
2023-03-13T22:39:37.141Z,38.60
2023-03-13T22:42:44.596Z,39.10
2023-03-13T22:45:54.646Z,39.30
2023-03-13T22:49:04.379Z,38.60
2023-03-13T22:52:16.263Z,37.90
2023-03-13T22:55:27.194Z,37.70
2023-03-13T22:58:38.382Z,38.20
2023-03-13T23:01:51.035Z,38.50
2023-03-13T23:05:03.573Z,38.50
2023-03-13T23:08:13.463Z,38.70
2023-03-13T23:11:25.196Z,38.80
2023-03-13T23:14:36.658Z,38.90
2023-03-13T23:17:46.426Z,39.00
2023-03-13T23:20:58.488Z,39.20
2023-03-13T23:24:12.285Z,37.70
2023-03-13T23:27:24.010Z,37.60
2023-03-13T23:30:35.010Z,37.70
2023-03-13T23:33:45.908Z,37.80
2023-03-13T23:36:54.368Z,37.80
2023-03-13T23:40:07.186Z,37.90
2023-03-13T23:43:17.291Z,38.10
2023-03-13T23:46:28.882Z,38.00
2023-03-13T23:53:58.229Z,38.50
2023-03-13T23:57:10.307Z,37.70
